Time;durP1;ratioP1;P1;durP2;ratioP2;P2;SDS_P1;SDS_P2;PMS_P1;PMS_P2;Temp;Humidity;BMP_temperature;BMP_pressure;BME280_temperature;BME280_humidity;BME280_pressure;Samples;Min_cycle;Max_cycle;Signal;HPM_P1;HPM_P2
2021/06/05 00:01:19;;;;;;;2.45;1.00;;;19.50;50.30;;;;;;4358500;32;20062;-35
2021/06/05 00:03:46;;;;;;;2.87;1.37;;;19.50;50.30;;;;;;4359101;32;20062;-36
2021/06/05 00:06:14;;;;;;;2.45;1.00;;;19.50;50.40;;;;;;4345510;32;20070;-34
2021/06/05 00:08:41;;;;;;;1.33;0.82;;;19.50;50.50;;;;;;4326434;33;20067;-35
2021/06/05 00:11:07;;;;;;;2.17;0.90;;;19.60;50.40;;;;;;4326696;33;20063;-35
2021/06/05 00:13:38;;;;;;;1.37;0.68;;;19.70;50.30;;;;;;4326762;33;20619;-35
2021/06/05 00:16:06;;;;;;;3.60;1.12;;;19.70;50.10;;;;;;4326474;33;20086;-35
2021/06/05 00:18:33;;;;;;;6.87;1.10;;;19.70;50.00;;;;;;4326361;33;20599;-35
2021/06/05 00:21:00;;;;;;;1.87;1.08;;;19.70;50.70;;;;;;4326435;33;20098;-34
2021/06/05 00:23:26;;;;;;;2.15;1.10;;;19.70;50.00;;;;;;4326360;33;20074;-35
2021/06/05 00:25:54;;;;;;;7.50;1.00;;;19.70;50.00;;;;;;4326608;33;20082;-35
2021/06/05 00:28:21;;;;;;;2.17;0.70;;;19.70;49.90;;;;;;4314131;33;20078;-35
2021/06/05 00:30:47;;;;;;;4.72;0.85;;;19.70;49.80;;;;;;4326569;33;20158;-35
2021/06/05 00:33:14;;;;;;;2.42;0.90;;;19.70;49.90;;;;;;4325978;33;20075;-35
2021/06/05 00:35:41;;;;;;;5.05;0.57;;;19.70;49.80;;;;;;4326548;33;20066;-35
2021/06/05 00:38:07;;;;;;;3.58;0.75;;;19.70;49.60;;;;;;4326496;33;20118;-35
2021/06/05 00:40:40;;;;;;;1.27;0.80;;;19.70;49.50;;;;;;4353908;32;20489;-35
2021/06/05 00:43:08;;;;;;;0.80;0.60;;;19.70;49.50;;;;;;4344684;32;20085;-35
2021/06/05 00:45:37;;;;;;;0.65;0.30;;;19.70;49.30;;;;;;4358478;32;20078;-35
2021/06/05 00:48:04;;;;;;;4.72;1.33;;;19.60;49.30;;;;;;4357987;32;20093;-34
2021/06/05 00:50:31;;;;;;;2.95;0.65;;;19.70;49.40;;;;;;4344300;32;20136;-35
2021/06/05 00:52:57;;;;;;;3.58;1.10;;;19.70;49.30;;;;;;4344308;32;20054;-35
2021/06/05 00:55:26;;;;;;;1.67;1.00;;;19.70;49.20;;;;;;4331998;32;20070;-35
2021/06/05 00:57:53;;;;;;;2.70;0.62;;;19.70;49.10;;;;;;4344631;32;20089;-34
2021/06/05 01:00:47;;;;;;;2.67;0.88;;;19.70;49.10;;;;;;4357887;32;20070;-34
2021/06/05 01:03:13;;;;;;;10.13;1.08;;;19.70;49.10;;;;;;4358258;32;20074;-35
2021/06/05 01:05:41;;;;;;;1.98;0.90;;;19.70;49.00;;;;;;4344402;32;20119;-36
2021/06/05 01:08:58;;;;;;;2.50;0.80;;;19.80;49.10;;;;;;4344629;32;20070;-35
2021/06/05 01:11:29;;;;;;;;;;;19.80;49.30;;;;;;4347818;32;20057;-35
2021/06/05 01:14:03;;;;;;;0.45;0.35;;;19.90;48.90;;;;;;4349878;32;20339;-35
2021/06/05 01:16:30;;;;;;;2.72;0.60;;;19.80;48.50;;;;;;4309014;33;20058;-35
2021/06/05 01:19:12;;;;;;;4.93;0.90;;;19.80;48.60;;;;;;4332556;33;20474;-35
2021/06/05 01:21:54;;;;;;;0.90;0.62;;;19.80;48.90;;;;;;4321959;32;20082;-36
2021/06/05 01:24:31;;;;;;;2.42;0.70;;;19.80;48.70;;;;;;4321346;33;20148;-35
2021/06/05 01:27:12;;;;;;;4.30;0.70;;;19.90;48.70;;;;;;4320516;33;20061;-35
2021/06/05 01:29:43;;;;;;;6.07;0.95;;;19.90;48.60;;;;;;4321061;33;20089;-36
2021/06/05 01:32:12;;;;;;;8.68;0.90;;;19.90;48.40;;;;;;4345793;32;20137;-35
2021/06/05 01:34:50;;;;;;;1.55;0.75;;;20.00;48.30;;;;;;4332389;32;20568;-36
2021/06/05 01:37:17;;;;;;;4.03;0.60;;;20.00;48.30;;;;;;4332271;33;20138;-35
2021/06/05 01:39:48;;;;;;;3.22;1.00;;;20.00;48.30;;;;;;4320509;33;20143;-34
2021/06/05 01:42:30;;;;;;;0.93;0.55;;;20.00;48.30;;;;;;4320392;33;20154;-35
2021/06/05 01:44:58;;;;;;;2.10;0.77;;;20.00;48.30;;;;;;4287305;33;20151;-35
2021/06/05 01:47:24;;;;;;;2.40;0.80;;;20.10;48.10;;;;;;4299320;33;20111;-36
2021/06/05 01:49:51;;;;;;;2.75;0.90;;;20.10;48.10;;;;;;4287308;33;20309;-34
2021/06/05 01:52:22;;;;;;;2.62;0.65;;;20.20;48.10;;;;;;4275133;33;20098;-34
2021/06/05 01:55:28;;;;;;;4.37;1.15;;;20.30;48.00;;;;;;4286875;33;20072;-34
2021/06/05 01:57:57;;;;;;;1.35;0.85;;;20.30;47.80;;;;;;4287700;33;20068;-35
2021/06/05 02:00:28;;;;;;;8.00;0.70;;;20.50;47.60;;;;;;4298946;33;20145;-36
2021/06/05 02:02:55;;;;;;;4.05;1.00;;;20.50;47.40;;;;;;4299326;33;20063;-36
2021/06/05 02:05:24;;;;;;;1.52;0.70;;;20.60;47.30;;;;;;4298862;33;20206;-36
2021/06/05 02:07:53;;;;;;;5.47;1.12;;;20.70;47.20;;;;;;4298756;33;20507;-36
2021/06/05 02:10:22;;;;;;;4.32;0.70;;;20.80;46.90;;;;;;4298857;33;20068;-35
2021/06/05 02:12:53;;;;;;;2.42;0.88;;;20.80;46.80;;;;;;4279339;33;20164;-36
2021/06/05 02:15:35;;;;;;;2.95;0.90;;;20.90;46.70;;;;;;4312395;32;20142;-36
2021/06/05 02:18:04;;;;;;;4.45;0.75;;;21.10;46.70;;;;;;4347371;32;20535;-35
2021/06/05 02:20:36;;;;;;;3.17;0.88;;;21.30;46.30;;;;;;4334250;32;20093;-35
2021/06/05 02:23:05;;;;;;;3.20;0.60;;;21.60;45.60;;;;;;4346471;32;20078;-35
2021/06/05 02:25:31;;;;;;;1.02;0.65;;;21.70;44.90;;;;;;4346311;32;20071;-36
2021/06/05 02:28:00;;;;;;;1.27;0.80;;;21.90;45.10;;;;;;4359703;32;20059;-35
2021/06/05 02:30:27;;;;;;;1.67;0.70;;;22.00;44.40;;;;;;4333720;32;20102;-35
2021/06/05 02:32:54;;;;;;;2.05;0.70;;;22.10;44.10;;;;;;4359914;32;20069;-36
2021/06/05 02:35:33;;;;;;;4.97;0.88;;;22.10;44.10;;;;;;4333885;32;20546;-36
2021/06/05 02:37:59;;;;;;;3.53;0.57;;;22.30;44.20;;;;;;4333287;32;20082;-36
2021/06/05 02:40:28;;;;;;;4.78;0.70;;;22.50;43.90;;;;;;4359925;32;20544;-36
2021/06/05 02:43:00;;;;;;;0.62;0.50;;;22.80;43.50;;;;;;4345854;32;20138;-35
2021/06/05 02:45:40;;;;;;;3.60;1.10;;;23.00;43.00;;;;;;4333667;32;20062;-36
2021/06/05 02:48:07;;;;;;;4.07;0.70;;;23.30;42.50;;;;;;4333834;32;20194;-36
2021/06/05 02:50:41;;;;;;;4.70;0.70;;;23.50;41.60;;;;;;4359807;32;20062;-37
2021/06/05 02:53:08;;;;;;;6.47;0.70;;;23.70;41.60;;;;;;4345696;32;20109;-36
2021/06/05 02:55:34;;;;;;;2.55;0.50;;;24.00;41.20;;;;;;4359567;32;20074;-37
2021/06/05 02:58:02;;;;;;;5.75;0.60;;;24.20;40.80;;;;;;4359959;32;20065;-38
2021/06/05 03:00:36;;;;;;;2.00;0.70;;;24.30;40.20;;;;;;4359583;32;20144;-38
2021/06/05 03:03:04;;;;;;;2.35;0.60;;;24.40;40.10;;;;;;4359539;32;20622;-38
2021/06/05 03:05:31;;;;;;;5.82;0.70;;;24.50;39.50;;;;;;4359378;32;20058;-38
2021/06/05 03:07:58;;;;;;;2.70;0.70;;;24.60;39.50;;;;;;4345799;32;20062;-37
2021/06/05 03:10:26;;;;;;;3.60;1.12;;;24.60;39.20;;;;;;4359235;32;20066;-37
2021/06/05 03:12:53;;;;;;;4.65;0.80;;;24.70;39.30;;;;;;4354654;32;20476;-38
2021/06/05 03:15:20;;;;;;;6.72;0.93;;;24.80;39.20;;;;;;4344576;33;20050;-36
2021/06/05 03:17:46;;;;;;;2.15;0.70;;;24.90;39.10;;;;;;4330775;33;20062;-37
2021/06/05 03:20:16;;;;;;;1.70;0.90;;;25.00;38.70;;;;;;4344419;32;20176;-37
2021/06/05 03:22:43;;;;;;;1.65;0.60;;;25.00;38.60;;;;;;4344579;32;20586;-37
2021/06/05 03:25:10;;;;;;;1.15;0.70;;;24.90;38.60;;;;;;4330529;33;20066;-36
2021/06/05 03:27:37;;;;;;;2.03;0.70;;;24.90;38.20;;;;;;4330398;33;20062;-36
2021/06/05 03:30:06;;;;;;;2.67;0.80;;;24.80;38.40;;;;;;4344472;32;20067;-36
2021/06/05 03:32:33;;;;;;;8.57;0.85;;;24.80;38.60;;;;;;4344431;33;20136;-36
2021/06/05 03:34:59;;;;;;;1.85;0.62;;;24.80;38.80;;;;;;4343687;32;20148;-37
2021/06/05 03:37:28;;;;;;;3.50;0.77;;;24.80;39.10;;;;;;4330673;33;20507;-37
2021/06/05 03:39:55;;;;;;;3.30;0.65;;;24.80;38.90;;;;;;4344225;32;20547;-37
2021/06/05 03:42:21;;;;;;;5.37;1.15;;;24.80;38.80;;;;;;4344353;33;20551;-37
2021/06/05 03:44:47;;;;;;;8.18;0.80;;;24.80;39.10;;;;;;4330491;33;20082;-37
2021/06/05 03:47:18;;;;;;;2.15;0.62;;;24.80;39.40;;;;;;4329937;33;20456;-37
2021/06/05 03:49:45;;;;;;;2.25;0.82;;;24.90;39.20;;;;;;4343845;33;20062;-37
2021/06/05 03:52:12;;;;;;;3.35;0.80;;;24.90;39.00;;;;;;4344163;32;20082;-36
2021/06/05 03:54:38;;;;;;;4.62;1.05;;;24.90;38.40;;;;;;4343931;32;20062;-37
2021/06/05 03:57:05;;;;;;;4.28;0.95;;;24.90;38.80;;;;;;4343606;33;20067;-36
2021/06/05 03:59:32;;;;;;;3.53;0.77;;;25.00;38.60;;;;;;4329925;33;20069;-38
2021/06/05 04:01:58;;;;;;;3.30;0.77;;;25.10;38.70;;;;;;4343718;32;20134;-38
2021/06/05 04:04:25;;;;;;;2.67;0.80;;;25.10;38.30;;;;;;4344114;33;20066;-38
2021/06/05 04:06:52;;;;;;;7.03;0.60;;;25.10;38.30;;;;;;4343932;32;20077;-37
2021/06/05 04:09:18;;;;;;;3.72;0.90;;;25.20;38.50;;;;;;4344049;32;20062;-38
2021/06/05 04:11:45;;;;;;;4.53;0.85;;;25.20;38.40;;;;;;4343558;32;20071;-38
2021/06/05 04:14:11;;;;;;;3.95;0.70;;;25.30;38.60;;;;;;4356099;32;20074;-38
2021/06/05 04:16:38;;;;;;;5.95;0.95;;;25.50;38.30;;;;;;4358450;32;20098;-37
2021/06/05 04:19:04;;;;;;;6.03;0.62;;;25.60;37.80;;;;;;4358322;32;20063;-38
2021/06/05 04:21:31;;;;;;;4.53;0.75;;;25.70;37.70;;;;;;4344915;32;20132;-38
2021/06/05 04:23:57;;;;;;;4.72;1.48;;;25.80;37.40;;;;;;4358250;32;20058;-39
2021/06/05 04:26:25;;;;;;;3.80;0.70;;;26.00;37.70;;;;;;4358745;32;20078;-40
2021/06/05 04:28:51;;;;;;;5.35;1.02;;;26.10;37.10;;;;;;4358416;32;20518;-39
2021/06/05 04:31:18;;;;;;;1.27;0.43;;;26.30;37.10;;;;;;4358251;32;20063;-39
2021/06/05 04:33:44;;;;;;;4.65;0.75;;;26.60;36.80;;;;;;4358142;32;20120;-38
2021/06/05 04:36:13;;;;;;;1.58;0.80;;;26.70;36.40;;;;;;4357978;32;20066;-38
2021/06/05 04:38:40;;;;;;;3.45;1.00;;;26.90;36.60;;;;;;4332195;32;20155;-38
2021/06/05 04:41:08;;;;;;;4.55;0.70;;;27.10;37.00;;;;;;4358302;32;20075;-38
2021/06/05 04:43:34;;;;;;;4.15;0.80;;;27.30;36.80;;;;;;4357777;32;20523;-38
2021/06/05 04:46:01;;;;;;;5.57;0.80;;;27.50;35.30;;;;;;4357686;32;20579;-39
2021/06/05 04:48:28;;;;;;;2.25;0.60;;;27.60;35.20;;;;;;4343943;32;20085;-40
2021/06/05 04:50:54;;;;;;;1.98;0.90;;;27.50;35.50;;;;;;4358141;32;20074;-40
2021/06/05 04:53:22;;;;;;;2.35;0.73;;;27.50;35.00;;;;;;4344471;32;20564;-44
2021/06/05 04:55:50;;;;;;;2.10;0.80;;;27.50;35.40;;;;;;4344388;32;20078;-39
2021/06/05 04:58:16;;;;;;;4.03;0.80;;;27.50;35.30;;;;;;4358114;32;20086;-38
2021/06/05 05:00:49;;;;;;;3.85;0.90;;;27.70;35.50;;;;;;4344073;32;20066;-38
2021/06/05 05:03:17;;;;;;;3.45;0.80;;;27.80;35.20;;;;;;4344636;32;20101;-37
2021/06/05 05:05:44;;;;;;;3.55;0.70;;;28.20;35.20;;;;;;4358030;32;20078;-39
2021/06/05 05:08:13;;;;;;;4.28;0.75;;;28.60;34.30;;;;;;4358019;32;20063;-38
2021/06/05 05:10:45;;;;;;;7.60;1.05;;;29.00;33.40;;;;;;4343692;32;20175;-39
2021/06/05 05:13:19;;;;;;;1.87;0.80;;;29.50;33.30;;;;;;4338263;33;20066;-38
2021/06/05 05:15:46;;;;;;;2.20;0.75;;;29.90;32.80;;;;;;4342706;33;20081;-38
2021/06/05 05:18:12;;;;;;;7.50;0.80;;;30.20;32.10;;;;;;4329430;33;20134;-38
2021/06/05 05:20:40;;;;;;;7.72;0.85;;;30.60;32.50;;;;;;4342537;32;20180;-39
2021/06/05 05:23:07;;;;;;;3.55;1.12;;;30.90;31.30;;;;;;4342951;32;20142;-39
2021/06/05 05:25:33;;;;;;;3.70;1.08;;;31.20;31.10;;;;;;4342950;32;20051;-38
2021/06/05 05:28:01;;;;;;;4.30;0.70;;;31.50;30.90;;;;;;4342584;32;20178;-39
2021/06/05 05:30:35;;;;;;;1.25;0.65;;;31.90;30.40;;;;;;4328953;33;20578;-39
2021/06/05 05:33:02;;;;;;;3.10;0.95;;;32.10;29.80;;;;;;4317306;32;20059;-38
2021/06/05 05:35:28;;;;;;;8.88;0.93;;;32.40;29.60;;;;;;4342963;33;20099;-40
2021/06/05 05:37:55;;;;;;;4.30;1.15;;;32.60;29.90;;;;;;4343152;33;20133;-39
2021/06/05 05:40:22;;;;;;;5.80;0.70;;;32.70;29.70;;;;;;4342453;33;20067;-39
2021/06/05 05:42:49;;;;;;;5.50;1.17;;;32.80;29.60;;;;;;4342905;32;20102;-41
2021/06/05 05:45:16;;;;;;;6.00;0.70;;;32.90;29.30;;;;;;4342514;32;20129;-40
2021/06/05 05:47:43;;;;;;;2.90;0.88;;;32.80;29.50;;;;;;4342536;33;20070;-40
2021/06/05 05:50:11;;;;;;;4.35;1.05;;;32.70;29.30;;;;;;4342479;32;20110;-40
2021/06/05 05:52:38;;;;;;;3.72;0.70;;;32.70;29.60;;;;;;4342701;32;20144;-39
2021/06/05 05:55:05;;;;;;;3.33;1.25;;;32.50;29.50;;;;;;4342901;32;20090;-40
2021/06/05 05:57:32;;;;;;;3.62;1.08;;;32.20;29.70;;;;;;4342650;32;20079;-41
2021/06/05 05:59:59;;;;;;;3.97;0.93;;;31.90;30.10;;;;;;4346415;32;20058;-38
2021/06/05 06:02:25;;;;;;;6.22;0.90;;;31.80;30.40;;;;;;4346171;33;20063;-39
2021/06/05 06:04:52;;;;;;;1.00;0.70;;;31.80;30.50;;;;;;4345123;32;20064;-39
2021/06/05 06:07:18;;;;;;;5.90;1.00;;;31.90;30.30;;;;;;4344958;33;20145;-40
2021/06/05 06:09:45;;;;;;;5.62;1.08;;;32.10;30.00;;;;;;4345148;33;20059;-40
2021/06/05 06:12:12;;;;;;;4.12;1.23;;;32.40;30.30;;;;;;4345653;32;20063;-40
2021/06/05 06:14:38;;;;;;;7.37;0.95;;;32.70;30.60;;;;;;4359761;32;20102;-39
2021/06/05 06:17:05;;;;;;;6.05;0.82;;;33.10;29.70;;;;;;4359988;32;20066;-40
2021/06/05 06:19:32;;;;;;;5.70;0.90;;;33.40;29.30;;;;;;4359913;32;20066;-39
2021/06/05 06:21:59;;;;;;;3.90;1.10;;;33.60;29.30;;;;;;4346648;32;20059;-44
2021/06/05 06:24:25;;;;;;;2.58;0.98;;;33.70;29.70;;;;;;4360325;32;20105;-40
2021/06/05 06:26:52;;;;;;;2.05;1.00;;;33.70;29.70;;;;;;4359927;32;20193;-41
2021/06/05 06:29:21;;;;;;;2.95;1.20;;;34.10;29.20;;;;;;4346146;32;20062;-41
2021/06/05 06:31:48;;;;;;;4.20;1.10;;;34.20;29.00;;;;;;4359756;32;20089;-40
2021/06/05 06:34:16;;;;;;;2.55;0.85;;;34.30;29.00;;;;;;4346134;32;20073;-41
2021/06/05 06:36:43;;;;;;;2.37;0.73;;;34.20;28.60;;;;;;4345758;32;20619;-40
2021/06/05 06:39:11;;;;;;;4.05;1.00;;;34.00;28.70;;;;;;4359780;32;20102;-39
2021/06/05 06:41:37;;;;;;;2.62;0.70;;;34.00;28.70;;;;;;4359778;32;20096;-41
2021/06/05 06:44:05;;;;;;;4.47;1.10;;;34.10;28.60;;;;;;4345870;32;20628;-41
2021/06/05 06:46:38;;;;;;;2.22;1.05;;;34.00;28.90;;;;;;4359880;32;20097;-39
2021/06/05 06:49:05;;;;;;;2.78;1.02;;;34.10;28.70;;;;;;4359416;32;20447;-39
2021/06/05 06:51:34;;;;;;;3.37;0.95;;;34.20;29.00;;;;;;4359689;32;20539;-39
2021/06/05 06:54:01;;;;;;;6.03;0.93;;;34.30;28.40;;;;;;4359416;32;20149;-41
2021/06/05 06:56:27;;;;;;;8.30;0.75;;;34.60;28.60;;;;;;4345732;32;20524;-40
2021/06/05 06:58:54;;;;;;;2.33;0.80;;;34.80;28.20;;;;;;4359800;32;20140;-39
2021/06/05 07:01:20;;;;;;;7.43;1.27;;;35.00;28.00;;;;;;4358970;32;20486;-40
2021/06/05 07:03:47;;;;;;;5.07;0.80;;;35.30;28.10;;;;;;4359104;32;20154;-41
2021/06/05 07:06:14;;;;;;;6.65;1.40;;;35.50;27.90;;;;;;4359115;32;20062;-41
2021/06/05 07:08:41;;;;;;;3.35;0.80;;;35.50;28.20;;;;;;4358943;32;20070;-40
2021/06/05 07:11:15;;;;;;;4.68;0.98;;;35.30;27.90;;;;;;4358420;32;20062;-40
2021/06/05 07:13:41;;;;;;;6.65;1.05;;;35.20;27.80;;;;;;4336067;33;20508;-40
2021/06/05 07:16:08;;;;;;;3.87;1.12;;;35.10;27.80;;;;;;4344436;32;20063;-40
2021/06/05 07:18:35;;;;;;;7.25;0.85;;;35.00;27.60;;;;;;4344300;32;20584;-40
2021/06/05 07:21:02;;;;;;;3.17;0.90;;;35.00;28.00;;;;;;4344573;32;20100;-45
2021/06/05 07:23:30;;;;;;;4.93;0.90;;;34.80;27.70;;;;;;4343994;33;20065;-40
2021/06/05 07:25:58;;;;;;;5.07;1.35;;;34.60;28.40;;;;;;4330376;32;20086;-40
2021/06/05 07:28:29;;;;;;;6.07;0.93;;;34.50;28.50;;;;;;4343472;32;20558;-40
2021/06/05 07:30:58;;;;;;;3.62;0.98;;;34.50;28.20;;;;;;4330598;32;20507;-41
2021/06/05 07:33:25;;;;;;;2.97;1.50;;;34.60;28.10;;;;;;4343360;32;20106;-41
2021/06/05 07:35:53;;;;;;;5.82;1.05;;;34.80;28.60;;;;;;4343747;33;20094;-41
2021/06/05 07:38:20;;;;;;;3.72;0.90;;;35.10;28.10;;;;;;4343831;32;20067;-41
2021/06/05 07:40:47;;;;;;;2.97;0.90;;;35.30;27.90;;;;;;4344048;33;20066;-39
2021/06/05 07:43:15;;;;;;;7.00;1.35;;;35.60;27.60;;;;;;4344307;32;20169;-41
2021/06/05 07:45:41;;;;;;;5.12;1.15;;;35.90;27.20;;;;;;4344182;32;20062;-41
2021/06/05 07:48:09;;;;;;;6.47;1.23;;;36.00;27.60;;;;;;4343459;32;20069;-42
2021/06/05 07:50:36;;;;;;;5.28;1.10;;;36.20;27.30;;;;;;4343808;32;20070;-41
2021/06/05 07:53:03;;;;;;;6.75;1.08;;;36.20;27.20;;;;;;4330111;33;20120;-42
2021/06/05 07:55:29;;;;;;;7.70;2.10;;;36.40;27.30;;;;;;4329962;33;20097;-41
2021/06/05 07:57:56;;;;;;;6.30;1.17;;;36.50;26.90;;;;;;4343708;32;20496;-41
2021/06/05 08:00:27;;;;;;;4.70;1.00;;;36.60;27.00;;;;;;4344101;32;20085;-41
2021/06/05 08:02:54;;;;;;;3.05;1.20;;;36.70;26.90;;;;;;4343834;32;20089;-41
2021/06/05 08:05:20;;;;;;;7.05;2.03;;;36.90;26.50;;;;;;4329846;33;20107;-42
2021/06/05 08:07:47;;;;;;;5.62;1.10;;;36.90;26.70;;;;;;4343600;32;20082;-42
2021/06/05 08:10:14;;;;;;;4.10;1.05;;;37.10;26.60;;;;;;4329670;33;20251;-41
2021/06/05 08:12:41;;;;;;;5.37;1.87;;;37.10;26.60;;;;;;4347182;32;20220;-44
2021/06/05 08:15:11;;;;;;;10.85;1.80;;;37.10;26.70;;;;;;4358530;32;20094;-42
2021/06/05 08:17:37;;;;;;;4.62;1.08;;;37.20;26.80;;;;;;4344908;32;20096;-42
2021/06/05 08:20:06;;;;;;;2.83;1.15;;;37.10;26.40;;;;;;4358469;32;20063;-43
2021/06/05 08:22:34;;;;;;;8.90;1.75;;;37.10;26.50;;;;;;4358736;32;20133;-42
2021/06/05 08:25:00;;;;;;;5.28;1.25;;;37.20;27.10;;;;;;4358107;32;20061;-44
2021/06/05 08:27:27;;;;;;;6.15;1.10;;;37.20;26.80;;;;;;4358581;32;20518;-43
2021/06/05 08:29:54;;;;;;;5.82;1.50;;;37.20;26.70;;;;;;4358283;32;20225;-42
2021/06/05 08:32:20;;;;;;;5.55;1.10;;;37.20;26.70;;;;;;4358010;32;20069;-44
2021/06/05 08:34:47;;;;;;;5.37;1.50;;;37.20;26.60;;;;;;4343838;32;20079;-42
2021/06/05 08:37:13;;;;;;;5.35;0.82;;;37.30;26.60;;;;;;4357838;32;20559;-45
2021/06/05 08:39:40;;;;;;;12.27;1.55;;;37.40;26.40;;;;;;4357958;32;20439;-42
2021/06/05 08:42:07;;;;;;;6.28;1.00;;;37.50;26.30;;;;;;4357678;32;20514;-45
2021/06/05 08:44:40;;;;;;;5.95;1.20;;;37.40;26.40;;;;;;4344443;32;20081;-43
2021/06/05 08:47:30;;;;;;;3.13;1.00;;;37.20;26.80;;;;;;4344569;32;20491;-43
2021/06/05 08:49:57;;;;;;;5.32;1.30;;;36.90;26.70;;;;;;4344035;32;20063;-42
2021/06/05 08:52:38;;;;;;;4.95;1.05;;;36.50;27.00;;;;;;4331754;32;20070;-42
2021/06/05 08:55:27;;;;;;;3.75;1.10;;;36.30;27.30;;;;;;4344578;32;20565;-42
2021/06/05 08:58:03;;;;;;;8.27;1.48;;;36.20;27.40;;;;;;4344064;32;20071;-42
2021/06/05 09:00:44;;;;;;;5.62;1.20;;;36.20;27.70;;;;;;4343845;32;20132;-41
2021/06/05 09:03:15;;;;;;;4.00;1.30;;;36.20;27.20;;;;;;4343737;32;20074;-42
2021/06/05 09:05:49;;;;;;;2.87;1.20;;;36.30;27.10;;;;;;4358120;32;20078;-41
2021/06/05 09:08:19;;;;;;;5.35;1.42;;;36.50;27.00;;;;;;4344076;32;20073;-42
2021/06/05 09:10:46;;;;;;;3.10;0.98;;;36.70;27.40;;;;;;4357509;32;20073;-42
2021/06/05 09:13:13;;;;;;;4.07;1.45;;;36.90;26.90;;;;;;4351417;32;20483;-41
2021/06/05 09:15:40;;;;;;;4.78;1.58;;;36.90;27.00;;;;;;4343369;32;20077;-42
2021/06/05 09:18:10;;;;;;;4.15;1.75;;;36.80;27.00;;;;;;4342961;32;20074;-44
2021/06/05 09:20:43;;;;;;;3.25;1.75;;;36.70;26.80;;;;;;4329379;33;20067;-42
2021/06/05 09:23:37;;;;;;;7.80;2.22;;;36.50;27.00;;;;;;4329630;33;20083;-42
2021/06/05 09:26:26;;;;;;;2.72;1.30;;;36.40;27.30;;;;;;4340771;33;20557;-40
2021/06/05 09:29:14;;;;;;;11.07;2.05;;;36.20;27.20;;;;;;4342573;32;20063;-41
2021/06/05 09:32:00;;;;;;;4.18;1.62;;;36.00;27.30;;;;;;4342668;32;20102;-42
2021/06/05 09:34:37;;;;;;;7.05;1.50;;;36.00;27.70;;;;;;4344990;32;20054;-42
2021/06/05 09:37:04;;;;;;;4.72;2.10;;;36.10;27.80;;;;;;4345875;32;20079;-41
2021/06/05 09:39:43;;;;;;;3.92;1.27;;;36.20;27.60;;;;;;4332111;33;20074;-40
2021/06/05 09:42:12;;;;;;;3.90;1.05;;;36.40;27.30;;;;;;4332521;33;20066;-41
2021/06/05 09:44:46;;;;;;;5.78;1.08;;;36.70;27.20;;;;;;4332148;33;20062;-41
2021/06/05 09:47:23;;;;;;;5.20;0.98;;;36.70;27.00;;;;;;4332135;33;20160;-40
2021/06/05 09:49:59;;;;;;;3.62;0.98;;;36.60;27.30;;;;;;4331953;33;20078;-42
2021/06/05 09:52:30;;;;;;;1.75;1.20;;;36.60;27.10;;;;;;4332516;33;20047;-42
2021/06/05 09:55:00;;;;;;;3.12;0.90;;;36.80;27.20;;;;;;4345288;33;20082;-41
2021/06/05 09:57:32;;;;;;;5.82;1.40;;;37.10;27.00;;;;;;4320122;33;20067;-41
2021/06/05 10:00:27;;;;;;;11.43;1.23;;;37.40;26.90;;;;;;4345196;33;20155;-43
2021/06/05 10:03:32;;;;;;;5.87;1.50;;;37.60;26.70;;;;;;4345883;32;20066;-43
2021/06/05 10:05:59;;;;;;;4.37;1.20;;;37.90;26.60;;;;;;4321990;33;20152;-43
2021/06/05 10:08:38;;;;;;;2.85;1.10;;;37.90;26.40;;;;;;4319052;33;20093;-42
2021/06/05 10:11:18;;;;;;;7.75;1.15;;;37.80;26.30;;;;;;4345111;33;20518;-42
2021/06/05 10:13:47;;;;;;;4.95;1.25;;;37.70;26.40;;;;;;4355116;32;20553;-41
2021/06/05 10:16:19;;;;;;;3.72;1.12;;;37.40;26.40;;;;;;4346582;32;20065;-42
2021/06/05 10:19:16;;;;;;;3.40;1.60;;;37.40;26.50;;;;;;4346237;32;20447;-41
2021/06/05 10:21:47;;;;;;;8.32;1.40;;;37.40;26.60;;;;;;4355458;32;20062;-42
2021/06/05 10:24:34;;;;;;;5.72;1.20;;;37.30;26.60;;;;;;4360167;32;20058;-42
2021/06/05 10:27:06;;;;;;;4.78;0.95;;;37.30;26.50;;;;;;4334060;32;20141;-41
2021/06/05 10:29:53;;;;;;;4.07;1.35;;;37.20;26.50;;;;;;4346159;32;20086;-47
2021/06/05 10:32:33;;;;;;;6.18;1.30;;;37.10;26.70;;;;;;4346078;32;20087;-41
2021/06/05 10:35:31;;;;;;;7.55;1.02;;;36.90;26.90;;;;;;4346904;32;20549;-40
2021/06/05 10:38:17;;;;;;;2.40;1.30;;;36.90;26.80;;;;;;4345606;32;20151;-42
2021/06/05 10:40:47;;;;;;;5.62;1.33;;;37.10;26.60;;;;;;4345990;32;20066;-42
2021/06/05 10:43:15;;;;;;;1.85;1.05;;;37.20;27.00;;;;;;4360114;32;20066;-42
2021/06/05 10:45:45;;;;;;;7.12;1.37;;;37.40;26.60;;;;;;4345088;32;20062;-42
2021/06/05 10:48:34;;;;;;;5.78;1.00;;;37.50;26.50;;;;;;4333577;32;20077;-43
2021/06/05 10:51:17;;;;;;;9.90;2.35;;;37.70;26.50;;;;;;4333527;32;20123;-42
2021/06/05 10:54:07;;;;;;;1.92;0.95;;;37.90;26.40;;;;;;4345792;32;20198;-41
2021/06/05 10:56:39;;;;;;;6.07;1.62;;;38.00;26.00;;;;;;4333258;32;20522;-41
2021/06/05 10:59:27;;;;;;;5.78;1.10;;;38.00;25.90;;;;;;4346222;32;20066;-42
2021/06/05 11:01:53;;;;;;;5.20;1.23;;;38.00;26.00;;;;;;4347522;32;20077;-42
2021/06/05 11:04:43;;;;;;;1.90;1.05;;;37.90;26.00;;;;;;4359008;32;20172;-42
2021/06/05 11:07:21;;;;;;;3.53;0.98;;;37.80;25.90;;;;;;4359682;32;20102;-42
2021/06/05 11:09:53;;;;;;;4.22;1.00;;;37.70;26.20;;;;;;4359365;32;20067;-41
2021/06/05 11:12:19;;;;;;;3.65;1.15;;;37.60;26.10;;;;;;4358225;32;20094;-41
2021/06/05 11:14:47;;;;;;;2.12;0.90;;;37.60;26.10;;;;;;4344264;32;20171;-42
2021/06/05 11:17:19;;;;;;;4.37;0.90;;;37.50;26.00;;;;;;4344516;33;20063;-41
2021/06/05 11:19:49;;;;;;;5.20;0.95;;;37.50;26.60;;;;;;4344531;32;20093;-41
2021/06/05 11:22:26;;;;;;;2.97;0.90;;;37.40;26.20;;;;;;4344587;32;20072;-42
2021/06/05 11:25:07;;;;;;;1.90;0.90;;;37.40;26.20;;;;;;4343949;33;20082;-42
2021/06/05 11:27:37;;;;;;;7.55;1.33;;;37.50;26.30;;;;;;4344102;32;20586;-43
2021/06/05 11:30:20;;;;;;;5.97;0.70;;;37.60;26.40;;;;;;4344250;32;20236;-42
2021/06/05 11:33:10;;;;;;;5.05;1.58;;;37.60;26.10;;;;;;4344270;32;20607;-41
2021/06/05 11:35:47;;;;;;;5.37;1.05;;;37.70;26.00;;;;;;4344044;32;20086;-41
2021/06/05 11:38:19;;;;;;;2.10;1.45;;;37.70;25.80;;;;;;4343771;32;20148;-43
2021/06/05 11:40:58;;;;;;;5.97;1.00;;;37.60;26.10;;;;;;4344325;32;20071;-42
2021/06/05 11:43:31;;;;;;;4.25;1.00;;;37.40;25.80;;;;;;4343703;32;20517;-42
2021/06/05 11:46:14;;;;;;;4.00;1.17;;;37.10;26.10;;;;;;4343802;32;20092;-42
2021/06/05 11:48:49;;;;;;;1.25;0.70;;;36.90;26.40;;;;;;4344106;33;20229;-41
2021/06/05 11:51:40;;;;;;;3.62;0.85;;;36.70;26.20;;;;;;4344140;32;20150;-42
2021/06/05 11:54:19;;;;;;;3.65;1.60;;;36.50;26.50;;;;;;4344178;33;20078;-41
2021/06/05 11:56:51;;;;;;;4.55;1.17;;;36.40;26.70;;;;;;4330582;33;20596;-42
2021/06/05 11:59:34;;;;;;;5.85;1.20;;;36.30;26.80;;;;;;4330480;33;20129;-42
2021/06/05 12:02:29;;;;;;;2.55;0.70;;;36.30;26.60;;;;;;4330916;32;20582;-41
2021/06/05 12:05:06;;;;;;;4.15;1.00;;;36.40;26.40;;;;;;4296645;33;20107;-41
2021/06/05 12:07:42;;;;;;;3.35;1.33;;;36.40;26.30;;;;;;4256206;33;20104;-41
2021/06/05 12:10:12;;;;;;;3.42;0.90;;;36.50;26.40;;;;;;4268030;33;20083;-42
2021/06/05 12:12:47;;;;;;;3.97;1.00;;;36.60;26.40;;;;;;4271559;33;20092;-42
2021/06/05 12:15:39;;;;;;;3.55;1.08;;;36.80;26.30;;;;;;4283047;33;20088;-41
2021/06/05 12:18:26;;;;;;;1.27;0.80;;;36.90;26.30;;;;;;4282889;33;20073;-42
2021/06/05 12:21:04;;;;;;;3.40;1.00;;;36.80;26.10;;;;;;4282710;33;20067;-41
2021/06/05 12:23:39;;;;;;;4.00;1.10;;;36.70;26.40;;;;;;4282785;33;20170;-41
2021/06/05 12:26:09;;;;;;;1.33;0.70;;;36.50;26.40;;;;;;4282171;33;20080;-41
2021/06/05 12:28:50;;;;;;;4.53;0.98;;;36.50;26.20;;;;;;4282781;33;20146;-41
2021/06/05 12:31:36;;;;;;;1.87;0.95;;;36.60;26.20;;;;;;4282599;33;20124;-42
2021/06/05 12:34:15;;;;;;;1.45;0.80;;;36.70;26.50;;;;;;4282047;33;20115;-41
2021/06/05 12:36:44;;;;;;;4.37;0.95;;;36.70;26.40;;;;;;4317165;33;20151;-42
2021/06/05 12:39:26;;;;;;;9.10;1.27;;;36.70;26.20;;;;;;4314204;33;20082;-40
2021/06/05 12:41:53;;;;;;;2.53;0.98;;;36.70;26.80;;;;;;4326008;33;20082;-41
2021/06/05 12:44:33;;;;;;;4.53;0.90;;;36.70;26.50;;;;;;4320673;32;20070;-41
2021/06/05 12:47:04;;;;;;;5.50;0.80;;;36.50;26.40;;;;;;4331961;32;20058;-41
2021/06/05 12:49:31;;;;;;;5.12;2.28;;;36.20;26.80;;;;;;4332112;32;20070;-41
2021/06/05 12:52:00;;;;;;;3.00;0.77;;;36.10;26.60;;;;;;4343965;32;20058;-40
2021/06/05 12:54:42;;;;;;;5.40;0.90;;;36.10;26.40;;;;;;4343834;32;20568;-40
2021/06/05 12:57:44;;;;;;;4.87;1.10;;;36.30;26.40;;;;;;4344088;32;20118;-41
2021/06/05 13:00:30;;;;;;;1.77;0.90;;;36.50;26.40;;;;;;4310626;33;20206;-40
2021/06/05 13:03:07;;;;;;;2.62;0.75;;;36.70;26.20;;;;;;4310853;33;20103;-41
2021/06/05 13:05:36;;;;;;;3.65;0.90;;;36.80;26.10;;;;;;4298668;33;20064;-41
2021/06/05 13:08:21;;;;;;;0.95;0.70;;;36.70;25.90;;;;;;4298681;33;20091;-41
2021/06/05 13:10:53;;;;;;;4.18;1.08;;;36.70;26.10;;;;;;4310709;33;20078;-40